Terminal Aerodrome Forecast
Issued by NWS

Home | Current Version | Previous Version | Graphics & Text | Print | Product List | Glossary On
Versions: 1 2 3 4 5 6 7 8 9 10 11 12 13 14
000
FTUS43 KBIS 270533 AAA
TAFMOT
TAF AMD
KMOT 270533Z 2706/2806 05006KT P6SM OVC050
     FM271100 05006KT P6SM VCSH OVC060
     FM271500 06010KT P6SM VCSH OVC080
     FM271900 08016G24KT P6SM OVC090
     FM280200 06010KT P6SM OVC120=

USA.gov is the U.S. government's official web portal to all federal, state and local government web resources and services.